sensor_id;sensor_type;location;lat;lon;timestamp;P1;durP1;ratioP1;P2;durP2;ratioP2
71288;SDS011;59068;52.502;9.860;2022-12-29T00:01:37;1.33;;;1.23;;
71288;SDS011;59068;52.502;9.860;2022-12-29T00:04:04;1.30;;;1.20;;
71288;SDS011;59068;52.502;9.860;2022-12-29T00:06:31;1.30;;;1.20;;
71288;SDS011;59068;52.502;9.860;2022-12-29T00:08:58;1.17;;;1.10;;
71288;SDS011;59068;52.502;9.860;2022-12-29T00:11:25;1.47;;;1.37;;
71288;SDS011;59068;52.502;9.860;2022-12-29T00:13:53;1.90;;;1.30;;
71288;SDS011;59068;52.502;9.860;2022-12-29T00:16:42;1.43;;;1.30;;
71288;SDS011;59068;52.502;9.860;2022-12-29T00:19:09;1.30;;;1.13;;
71288;SDS011;59068;52.502;9.860;2022-12-29T00:21:56;1.00;;;1.00;;
71288;SDS011;59068;52.502;9.860;2022-12-29T00:24:43;1.17;;;1.13;;
71288;SDS011;59068;52.502;9.860;2022-12-29T00:27:29;0.90;;;0.90;;
71288;SDS011;59068;52.502;9.860;2022-12-29T00:30:18;1.60;;;1.20;;
71288;SDS011;59068;52.502;9.860;2022-12-29T00:33:20;3.37;;;1.37;;
71288;SDS011;59068;52.502;9.860;2022-12-29T00:36:23;1.10;;;0.97;;
71288;SDS011;59068;52.502;9.860;2022-12-29T00:38:55;1.37;;;0.93;;
71288;SDS011;59068;52.502;9.860;2022-12-29T00:41:44;1.70;;;1.20;;
71288;SDS011;59068;52.502;9.860;2022-12-29T00:44:29;2.00;;;1.00;;
71288;SDS011;59068;52.502;9.860;2022-12-29T00:46:56;1.93;;;1.13;;
71288;SDS011;59068;52.502;9.860;2022-12-29T00:49:22;2.37;;;1.43;;
71288;SDS011;59068;52.502;9.860;2022-12-29T00:52:03;1.17;;;1.00;;
71288;SDS011;59068;52.502;9.860;2022-12-29T00:54:31;2.50;;;1.20;;
71288;SDS011;59068;52.502;9.860;2022-12-29T00:57:04;1.10;;;1.00;;
71288;SDS011;59068;52.502;9.860;2022-12-29T00:59:34;2.33;;;1.20;;
71288;SDS011;59068;52.502;9.860;2022-12-29T01:02:00;1.43;;;0.87;;
71288;SDS011;59068;52.502;9.860;2022-12-29T01:04:27;2.80;;;1.10;;
71288;SDS011;59068;52.502;9.860;2022-12-29T01:06:53;1.43;;;1.33;;
71288;SDS011;59068;52.502;9.860;2022-12-29T01:09:20;1.10;;;1.00;;
71288;SDS011;59068;52.502;9.860;2022-12-29T01:12:04;1.80;;;1.00;;
71288;SDS011;59068;52.502;9.860;2022-12-29T01:14:32;0.90;;;0.90;;
71288;SDS011;59068;52.502;9.860;2022-12-29T01:16:59;1.00;;;0.90;;
71288;SDS011;59068;52.502;9.860;2022-12-29T01:19:24;1.20;;;1.10;;
71288;SDS011;59068;52.502;9.860;2022-12-29T01:21:50;1.80;;;1.27;;
71288;SDS011;59068;52.502;9.860;2022-12-29T01:24:17;2.90;;;1.10;;
71288;SDS011;59068;52.502;9.860;2022-12-29T01:26:45;0.60;;;0.60;;
71288;SDS011;59068;52.502;9.860;2022-12-29T01:29:12;1.20;;;0.80;;
71288;SDS011;59068;52.502;9.860;2022-12-29T01:31:37;0.90;;;0.90;;
71288;SDS011;59068;52.502;9.860;2022-12-29T01:34:04;1.73;;;0.80;;
71288;SDS011;59068;52.502;9.860;2022-12-29T01:36:31;2.00;;;0.90;;
71288;SDS011;59068;52.502;9.860;2022-12-29T01:38:58;0.83;;;0.63;;
71288;SDS011;59068;52.502;9.860;2022-12-29T01:41:23;0.80;;;0.80;;
71288;SDS011;59068;52.502;9.860;2022-12-29T01:43:50;1.00;;;0.90;;
71288;SDS011;59068;52.502;9.860;2022-12-29T01:51:57;1.13;;;1.03;;
71288;SDS011;59068;52.502;9.860;2022-12-29T01:54:28;1.60;;;0.80;;
71288;SDS011;59068;52.502;9.860;2022-12-29T01:57:17;1.47;;;0.80;;
71288;SDS011;59068;52.502;9.860;2022-12-29T01:59:46;0.77;;;0.70;;
71288;SDS011;59068;52.502;9.860;2022-12-29T02:02:16;0.90;;;0.90;;
71288;SDS011;59068;52.502;9.860;2022-12-29T02:04:43;0.90;;;0.90;;
71288;SDS011;59068;52.502;9.860;2022-12-29T02:07:21;1.17;;;0.77;;
71288;SDS011;59068;52.502;9.860;2022-12-29T02:09:51;0.80;;;0.80;;
71288;SDS011;59068;52.502;9.860;2022-12-29T02:12:20;1.20;;;0.87;;
71288;SDS011;59068;52.502;9.860;2022-12-29T02:14:48;1.37;;;0.77;;
71288;SDS011;59068;52.502;9.860;2022-12-29T02:40:51;0.80;;;0.80;;
71288;SDS011;59068;52.502;9.860;2022-12-29T02:46:23;1.07;;;0.80;;
71288;SDS011;59068;52.502;9.860;2022-12-29T02:51:50;0.67;;;0.57;;
71288;SDS011;59068;52.502;9.860;2022-12-29T02:54:19;0.50;;;0.50;;
71288;SDS011;59068;52.502;9.860;2022-12-29T02:57:08;1.00;;;0.87;;
71288;SDS011;59068;52.502;9.860;2022-12-29T02:59:45;1.30;;;0.63;;
71288;SDS011;59068;52.502;9.860;2022-12-29T03:02:22;0.80;;;0.80;;
71288;SDS011;59068;52.502;9.860;2022-12-29T03:11:05;0.43;;;0.43;;
71288;SDS011;59068;52.502;9.860;2022-12-29T03:13:56;0.63;;;0.63;;
71288;SDS011;59068;52.502;9.860;2022-12-29T03:16:46;0.70;;;0.43;;
71288;SDS011;59068;52.502;9.860;2022-12-29T03:19:20;0.80;;;0.70;;
71288;SDS011;59068;52.502;9.860;2022-12-29T03:21:50;0.80;;;0.80;;
71288;SDS011;59068;52.502;9.860;2022-12-29T03:24:39;0.70;;;0.70;;
71288;SDS011;59068;52.502;9.860;2022-12-29T03:27:10;2.07;;;0.60;;
71288;SDS011;59068;52.502;9.860;2022-12-29T03:29:44;1.27;;;0.70;;
71288;SDS011;59068;52.502;9.860;2022-12-29T03:32:13;1.07;;;0.60;;
71288;SDS011;59068;52.502;9.860;2022-12-29T03:34:39;0.77;;;0.63;;
71288;SDS011;59068;52.502;9.860;2022-12-29T03:37:10;0.60;;;0.60;;
71288;SDS011;59068;52.502;9.860;2022-12-29T03:39:38;0.63;;;0.63;;
71288;SDS011;59068;52.502;9.860;2022-12-29T03:42:05;0.70;;;0.40;;
71288;SDS011;59068;52.502;9.860;2022-12-29T03:44:39;0.50;;;0.50;;
71288;SDS011;59068;52.502;9.860;2022-12-29T03:47:06;0.77;;;0.60;;
71288;SDS011;59068;52.502;9.860;2022-12-29T03:49:32;0.63;;;0.60;;
71288;SDS011;59068;52.502;9.860;2022-12-29T03:51:59;0.40;;;0.40;;
71288;SDS011;59068;52.502;9.860;2022-12-29T03:54:25;0.77;;;0.57;;
71288;SDS011;59068;52.502;9.860;2022-12-29T03:56:52;0.40;;;0.40;;
71288;SDS011;59068;52.502;9.860;2022-12-29T03:59:18;1.40;;;0.60;;
71288;SDS011;59068;52.502;9.860;2022-12-29T04:01:44;0.60;;;0.60;;
71288;SDS011;59068;52.502;9.860;2022-12-29T04:04:10;0.87;;;0.43;;
71288;SDS011;59068;52.502;9.860;2022-12-29T04:06:36;0.80;;;0.63;;
71288;SDS011;59068;52.502;9.860;2022-12-29T04:09:02;0.40;;;0.40;;
71288;SDS011;59068;52.502;9.860;2022-12-29T04:11:29;0.90;;;0.60;;
71288;SDS011;59068;52.502;9.860;2022-12-29T04:13:55;0.97;;;0.60;;
71288;SDS011;59068;52.502;9.860;2022-12-29T04:16:21;0.73;;;0.73;;
71288;SDS011;59068;52.502;9.860;2022-12-29T04:18:48;0.83;;;0.40;;
71288;SDS011;59068;52.502;9.860;2022-12-29T04:21:13;0.37;;;0.37;;
71288;SDS011;59068;52.502;9.860;2022-12-29T04:23:40;0.70;;;0.30;;
71288;SDS011;59068;52.502;9.860;2022-12-29T04:26:08;0.47;;;0.47;;
71288;SDS011;59068;52.502;9.860;2022-12-29T04:28:35;0.40;;;0.40;;
71288;SDS011;59068;52.502;9.860;2022-12-29T04:31:03;0.40;;;0.40;;
71288;SDS011;59068;52.502;9.860;2022-12-29T04:33:29;0.37;;;0.37;;
71288;SDS011;59068;52.502;9.860;2022-12-29T04:35:56;0.40;;;0.40;;
71288;SDS011;59068;52.502;9.860;2022-12-29T04:38:23;1.23;;;0.50;;
71288;SDS011;59068;52.502;9.860;2022-12-29T04:40:50;0.57;;;0.50;;
71288;SDS011;59068;52.502;9.860;2022-12-29T04:43:17;2.30;;;0.40;;
71288;SDS011;59068;52.502;9.860;2022-12-29T04:45:44;0.40;;;0.40;;
71288;SDS011;59068;52.502;9.860;2022-12-29T04:48:12;0.30;;;0.30;;
71288;SDS011;59068;52.502;9.860;2022-12-29T04:50:37;0.30;;;0.30;;
71288;SDS011;59068;52.502;9.860;2022-12-29T04:53:04;0.93;;;0.40;;
71288;SDS011;59068;52.502;9.860;2022-12-29T04:55:30;0.60;;;0.37;;
71288;SDS011;59068;52.502;9.860;2022-12-29T04:57:56;0.33;;;0.33;;
71288;SDS011;59068;52.502;9.860;2022-12-29T05:00:23;0.60;;;0.60;;
71288;SDS011;59068;52.502;9.860;2022-12-29T05:02:50;0.73;;;0.30;;
71288;SDS011;59068;52.502;9.860;2022-12-29T05:05:16;0.50;;;0.40;;
71288;SDS011;59068;52.502;9.860;2022-12-29T05:07:42;0.40;;;0.40;;
71288;SDS011;59068;52.502;9.860;2022-12-29T05:10:10;0.70;;;0.40;;
71288;SDS011;59068;52.502;9.860;2022-12-29T05:12:36;1.03;;;0.37;;
71288;SDS011;59068;52.502;9.860;2022-12-29T05:15:04;0.30;;;0.30;;
71288;SDS011;59068;52.502;9.860;2022-12-29T05:17:30;0.23;;;0.23;;
71288;SDS011;59068;52.502;9.860;2022-12-29T05:19:57;0.30;;;0.30;;
71288;SDS011;59068;52.502;9.860;2022-12-29T05:22:23;0.50;;;0.40;;
71288;SDS011;59068;52.502;9.860;2022-12-29T05:24:48;0.23;;;0.23;;
71288;SDS011;59068;52.502;9.860;2022-12-29T05:27:16;0.40;;;0.40;;
71288;SDS011;59068;52.502;9.860;2022-12-29T05:29:41;0.20;;;0.20;;
71288;SDS011;59068;52.502;9.860;2022-12-29T05:32:08;1.73;;;0.33;;
71288;SDS011;59068;52.502;9.860;2022-12-29T05:34:33;0.77;;;0.43;;
71288;SDS011;59068;52.502;9.860;2022-12-29T05:37:00;0.93;;;0.50;;
71288;SDS011;59068;52.502;9.860;2022-12-29T05:39:27;1.40;;;0.50;;
71288;SDS011;59068;52.502;9.860;2022-12-29T05:41:54;1.20;;;0.43;;
71288;SDS011;59068;52.502;9.860;2022-12-29T05:44:21;0.47;;;0.40;;
71288;SDS011;59068;52.502;9.860;2022-12-29T05:46:48;0.30;;;0.30;;
71288;SDS011;59068;52.502;9.860;2022-12-29T05:49:15;0.83;;;0.30;;
71288;SDS011;59068;52.502;9.860;2022-12-29T05:51:41;0.57;;;0.53;;
71288;SDS011;59068;52.502;9.860;2022-12-29T05:54:10;1.17;;;0.40;;
71288;SDS011;59068;52.502;9.860;2022-12-29T05:56:35;1.37;;;0.20;;
71288;SDS011;59068;52.502;9.860;2022-12-29T05:59:01;1.17;;;0.30;;
71288;SDS011;59068;52.502;9.860;2022-12-29T06:01:27;0.30;;;0.30;;
71288;SDS011;59068;52.502;9.860;2022-12-29T06:03:54;1.03;;;0.30;;
71288;SDS011;59068;52.502;9.860;2022-12-29T06:06:20;3.97;;;0.67;;
71288;SDS011;59068;52.502;9.860;2022-12-29T06:08:45;0.60;;;0.40;;
71288;SDS011;59068;52.502;9.860;2022-12-29T06:11:12;0.40;;;0.37;;
71288;SDS011;59068;52.502;9.860;2022-12-29T06:13:38;0.43;;;0.40;;
71288;SDS011;59068;52.502;9.860;2022-12-29T06:16:04;0.30;;;0.30;;
71288;SDS011;59068;52.502;9.860;2022-12-29T06:18:31;0.30;;;0.30;;
71288;SDS011;59068;52.502;9.860;2022-12-29T06:21:04;1.30;;;0.40;;
71288;SDS011;59068;52.502;9.860;2022-12-29T06:23:31;0.47;;;0.43;;
71288;SDS011;59068;52.502;9.860;2022-12-29T06:25:57;0.50;;;0.40;;
71288;SDS011;59068;52.502;9.860;2022-12-29T06:28:23;1.03;;;0.50;;
71288;SDS011;59068;52.502;9.860;2022-12-29T06:30:49;0.50;;;0.40;;
71288;SDS011;59068;52.502;9.860;2022-12-29T06:33:16;0.40;;;0.30;;
71288;SDS011;59068;52.502;9.860;2022-12-29T06:35:44;0.40;;;0.40;;
71288;SDS011;59068;52.502;9.860;2022-12-29T06:38:11;0.50;;;0.30;;
71288;SDS011;59068;52.502;9.860;2022-12-29T06:40:37;0.87;;;0.40;;
71288;SDS011;59068;52.502;9.860;2022-12-29T06:43:04;0.37;;;0.30;;
71288;SDS011;59068;52.502;9.860;2022-12-29T06:45:31;1.67;;;0.40;;
71288;SDS011;59068;52.502;9.860;2022-12-29T06:47:58;1.00;;;0.40;;
71288;SDS011;59068;52.502;9.860;2022-12-29T06:50:24;0.40;;;0.40;;
71288;SDS011;59068;52.502;9.860;2022-12-29T06:52:51;0.30;;;0.30;;
71288;SDS011;59068;52.502;9.860;2022-12-29T06:55:17;0.80;;;0.50;;
71288;SDS011;59068;52.502;9.860;2022-12-29T06:57:44;0.33;;;0.33;;
71288;SDS011;59068;52.502;9.860;2022-12-29T07:00:11;1.53;;;0.50;;
71288;SDS011;59068;52.502;9.860;2022-12-29T07:02:37;0.40;;;0.33;;
71288;SDS011;59068;52.502;9.860;2022-12-29T07:05:04;0.47;;;0.27;;
71288;SDS011;59068;52.502;9.860;2022-12-29T07:07:30;0.67;;;0.33;;
71288;SDS011;59068;52.502;9.860;2022-12-29T07:09:56;1.90;;;0.50;;
71288;SDS011;59068;52.502;9.860;2022-12-29T07:12:23;0.83;;;0.30;;
71288;SDS011;59068;52.502;9.860;2022-12-29T07:14:50;0.30;;;0.30;;
71288;SDS011;59068;52.502;9.860;2022-12-29T07:17:16;1.60;;;0.40;;
71288;SDS011;59068;52.502;9.860;2022-12-29T07:19:42;1.23;;;0.50;;
71288;SDS011;59068;52.502;9.860;2022-12-29T07:22:11;1.80;;;0.60;;
71288;SDS011;59068;52.502;9.860;2022-12-29T07:24:36;1.00;;;0.40;;
71288;SDS011;59068;52.502;9.860;2022-12-29T07:27:03;0.20;;;0.20;;
71288;SDS011;59068;52.502;9.860;2022-12-29T07:29:29;0.93;;;0.20;;
71288;SDS011;59068;52.502;9.860;2022-12-29T07:31:54;1.77;;;0.40;;
71288;SDS011;59068;52.502;9.860;2022-12-29T07:34:19;0.60;;;0.20;;
71288;SDS011;59068;52.502;9.860;2022-12-29T07:36:45;0.50;;;0.17;;
71288;SDS011;59068;52.502;9.860;2022-12-29T07:39:10;0.40;;;0.20;;
71288;SDS011;59068;52.502;9.860;2022-12-29T07:41:37;1.63;;;0.40;;
71288;SDS011;59068;52.502;9.860;2022-12-29T07:44:04;1.13;;;0.37;;
71288;SDS011;59068;52.502;9.860;2022-12-29T07:46:30;0.10;;;0.10;;
71288;SDS011;59068;52.502;9.860;2022-12-29T07:48:57;0.60;;;0.20;;
71288;SDS011;59068;52.502;9.860;2022-12-29T07:51:24;0.97;;;0.20;;
71288;SDS011;59068;52.502;9.860;2022-12-29T07:53:51;1.53;;;0.20;;
71288;SDS011;59068;52.502;9.860;2022-12-29T07:56:16;1.97;;;0.37;;
71288;SDS011;59068;52.502;9.860;2022-12-29T07:58:42;1.60;;;0.40;;
71288;SDS011;59068;52.502;9.860;2022-12-29T08:01:09;1.60;;;0.20;;
71288;SDS011;59068;52.502;9.860;2022-12-29T08:03:36;1.00;;;0.30;;
71288;SDS011;59068;52.502;9.860;2022-12-29T08:06:03;0.20;;;0.20;;
71288;SDS011;59068;52.502;9.860;2022-12-29T08:08:28;0.73;;;0.30;;
71288;SDS011;59068;52.502;9.860;2022-12-29T08:10:55;0.60;;;0.40;;
71288;SDS011;59068;52.502;9.860;2022-12-29T08:13:20;1.37;;;0.40;;
71288;SDS011;59068;52.502;9.860;2022-12-29T08:15:46;2.43;;;0.70;;
71288;SDS011;59068;52.502;9.860;2022-12-29T08:18:12;0.40;;;0.37;;
71288;SDS011;59068;52.502;9.860;2022-12-29T08:20:37;0.60;;;0.20;;
71288;SDS011;59068;52.502;9.860;2022-12-29T08:23:04;0.30;;;0.27;;
71288;SDS011;59068;52.502;9.860;2022-12-29T08:25:29;2.60;;;0.40;;
71288;SDS011;59068;52.502;9.860;2022-12-29T08:27:57;0.77;;;0.13;;
71288;SDS011;59068;52.502;9.860;2022-12-29T08:30:23;1.30;;;0.37;;
71288;SDS011;59068;52.502;9.860;2022-12-29T08:32:50;0.67;;;0.30;;
71288;SDS011;59068;52.502;9.860;2022-12-29T08:35:15;0.77;;;0.33;;
71288;SDS011;59068;52.502;9.860;2022-12-29T08:37:43;0.93;;;0.20;;
71288;SDS011;59068;52.502;9.860;2022-12-29T08:40:09;0.87;;;0.30;;
71288;SDS011;59068;52.502;9.860;2022-12-29T08:42:36;0.80;;;0.43;;
71288;SDS011;59068;52.502;9.860;2022-12-29T08:45:04;0.60;;;0.30;;
71288;SDS011;59068;52.502;9.860;2022-12-29T08:47:32;1.73;;;0.70;;
71288;SDS011;59068;52.502;9.860;2022-12-29T08:49:58;0.90;;;0.40;;
71288;SDS011;59068;52.502;9.860;2022-12-29T08:52:24;1.13;;;0.60;;
71288;SDS011;59068;52.502;9.860;2022-12-29T08:54:50;1.50;;;0.37;;
71288;SDS011;59068;52.502;9.860;2022-12-29T08:57:15;1.00;;;0.40;;
71288;SDS011;59068;52.502;9.860;2022-12-29T08:59:41;2.33;;;0.83;;
71288;SDS011;59068;52.502;9.860;2022-12-29T09:02:12;0.70;;;0.70;;
71288;SDS011;59068;52.502;9.860;2022-12-29T09:04:38;1.43;;;0.80;;
71288;SDS011;59068;52.502;9.860;2022-12-29T09:07:05;2.50;;;0.60;;
71288;SDS011;59068;52.502;9.860;2022-12-29T09:09:31;1.13;;;0.43;;
71288;SDS011;59068;52.502;9.860;2022-12-29T09:11:58;2.43;;;0.60;;
71288;SDS011;59068;52.502;9.860;2022-12-29T09:14:25;2.00;;;0.80;;
71288;SDS011;59068;52.502;9.860;2022-12-29T09:16:52;4.33;;;0.80;;
71288;SDS011;59068;52.502;9.860;2022-12-29T09:19:37;1.77;;;0.70;;
71288;SDS011;59068;52.502;9.860;2022-12-29T09:22:03;3.13;;;0.90;;
71288;SDS011;59068;52.502;9.860;2022-12-29T09:24:30;2.70;;;0.83;;
71288;SDS011;59068;52.502;9.860;2022-12-29T09:26:57;3.67;;;0.70;;
71288;SDS011;59068;52.502;9.860;2022-12-29T09:29:24;2.33;;;0.70;;
71288;SDS011;59068;52.502;9.860;2022-12-29T09:31:51;4.27;;;0.53;;
71288;SDS011;59068;52.502;9.860;2022-12-29T09:34:16;3.60;;;1.20;;
71288;SDS011;59068;52.502;9.860;2022-12-29T09:36:43;1.90;;;0.60;;
71288;SDS011;59068;52.502;9.860;2022-12-29T09:39:10;2.53;;;0.77;;
71288;SDS011;59068;52.502;9.860;2022-12-29T09:41:36;1.23;;;0.87;;
71288;SDS011;59068;52.502;9.860;2022-12-29T09:46:53;2.20;;;0.50;;
71288;SDS011;59068;52.502;9.860;2022-12-29T09:52:08;5.07;;;0.90;;
71288;SDS011;59068;52.502;9.860;2022-12-29T10:01:12;2.80;;;0.90;;
71288;SDS011;59068;52.502;9.860;2022-12-29T10:03:21;1.73;;;0.87;;
71288;SDS011;59068;52.502;9.860;2022-12-29T10:05:50;2.07;;;0.87;;
71288;SDS011;59068;52.502;9.860;2022-12-29T10:25:30;2.17;;;0.90;;
71288;SDS011;59068;52.502;9.860;2022-12-29T10:28:01;2.53;;;1.13;;
71288;SDS011;59068;52.502;9.860;2022-12-29T10:30:32;1.63;;;0.80;;
71288;SDS011;59068;52.502;9.860;2022-12-29T10:33:04;2.23;;;1.00;;
71288;SDS011;59068;52.502;9.860;2022-12-29T10:35:36;1.27;;;1.10;;
71288;SDS011;59068;52.502;9.860;2022-12-29T10:41:32;2.77;;;1.20;;
71288;SDS011;59068;52.502;9.860;2022-12-29T10:44:03;1.20;;;1.10;;
71288;SDS011;59068;52.502;9.860;2022-12-29T10:46:33;2.13;;;1.10;;
71288;SDS011;59068;52.502;9.860;2022-12-29T10:49:02;1.67;;;1.10;;
71288;SDS011;59068;52.502;9.860;2022-12-29T10:51:29;2.23;;;1.23;;
71288;SDS011;59068;52.502;9.860;2022-12-29T10:54:01;1.67;;;1.00;;
71288;SDS011;59068;52.502;9.860;2022-12-29T11:07:28;0.90;;;0.70;;
71288;SDS011;59068;52.502;9.860;2022-12-29T11:10:15;1.10;;;0.67;;
71288;SDS011;59068;52.502;9.860;2022-12-29T11:12:59;1.00;;;0.80;;
71288;SDS011;59068;52.502;9.860;2022-12-29T11:15:49;1.70;;;0.70;;
71288;SDS011;59068;52.502;9.860;2022-12-29T11:18:36;2.27;;;0.87;;
71288;SDS011;59068;52.502;9.860;2022-12-29T11:21:04;1.27;;;1.07;;
71288;SDS011;59068;52.502;9.860;2022-12-29T11:23:40;1.80;;;0.80;;
71288;SDS011;59068;52.502;9.860;2022-12-29T11:28:39;2.23;;;1.07;;
71288;SDS011;59068;52.502;9.860;2022-12-29T11:31:08;2.50;;;1.00;;
71288;SDS011;59068;52.502;9.860;2022-12-29T11:33:35;2.83;;;0.80;;
71288;SDS011;59068;52.502;9.860;2022-12-29T11:36:10;1.73;;;0.97;;
71288;SDS011;59068;52.502;9.860;2022-12-29T11:38:48;2.97;;;0.93;;
71288;SDS011;59068;52.502;9.860;2022-12-29T11:41:20;4.17;;;1.10;;
71288;SDS011;59068;52.502;9.860;2022-12-29T11:43:47;1.63;;;0.93;;
71288;SDS011;59068;52.502;9.860;2022-12-29T11:46:17;2.90;;;0.93;;
71288;SDS011;59068;52.502;9.860;2022-12-29T11:48:46;4.97;;;1.50;;
71288;SDS011;59068;52.502;9.860;2022-12-29T11:51:13;2.10;;;1.10;;
71288;SDS011;59068;52.502;9.860;2022-12-29T11:53:50;2.60;;;1.03;;
71288;SDS011;59068;52.502;9.860;2022-12-29T11:56:20;2.13;;;1.30;;
71288;SDS011;59068;52.502;9.860;2022-12-29T11:58:49;2.93;;;1.20;;
71288;SDS011;59068;52.502;9.860;2022-12-29T12:03:44;3.20;;;1.03;;
71288;SDS011;59068;52.502;9.860;2022-12-29T12:06:16;3.07;;;1.10;;
71288;SDS011;59068;52.502;9.860;2022-12-29T12:08:44;2.87;;;1.10;;
71288;SDS011;59068;52.502;9.860;2022-12-29T12:11:19;3.07;;;1.10;;
71288;SDS011;59068;52.502;9.860;2022-12-29T12:13:57;1.87;;;0.90;;
71288;SDS011;59068;52.502;9.860;2022-12-29T12:16:36;1.37;;;0.80;;
71288;SDS011;59068;52.502;9.860;2022-12-29T12:19:18;1.53;;;0.87;;
71288;SDS011;59068;52.502;9.860;2022-12-29T12:21:51;5.03;;;0.90;;
71288;SDS011;59068;52.502;9.860;2022-12-29T12:27:09;3.07;;;0.97;;
71288;SDS011;59068;52.502;9.860;2022-12-29T12:29:38;4.57;;;1.07;;
71288;SDS011;59068;52.502;9.860;2022-12-29T12:35:49;2.10;;;0.90;;
71288;SDS011;59068;52.502;9.860;2022-12-29T12:44:44;2.57;;;0.80;;
71288;SDS011;59068;52.502;9.860;2022-12-29T12:50:31;2.07;;;0.60;;
71288;SDS011;59068;52.502;9.860;2022-12-29T12:56:16;2.13;;;0.70;;
71288;SDS011;59068;52.502;9.860;2022-12-29T13:02:12;1.03;;;0.60;;
71288;SDS011;59068;52.502;9.860;2022-12-29T13:07:29;4.93;;;0.70;;
71288;SDS011;59068;52.502;9.860;2022-12-29T13:19:02;2.23;;;0.90;;
71288;SDS011;59068;52.502;9.860;2022-12-29T13:24:35;4.80;;;0.73;;
71288;SDS011;59068;52.502;9.860;2022-12-29T13:27:12;2.40;;;0.80;;
71288;SDS011;59068;52.502;9.860;2022-12-29T13:30:00;2.47;;;0.50;;
71288;SDS011;59068;52.502;9.860;2022-12-29T13:38:17;1.87;;;0.90;;
71288;SDS011;59068;52.502;9.860;2022-12-29T13:40:46;2.57;;;0.70;;
71288;SDS011;59068;52.502;9.860;2022-12-29T13:43:18;3.93;;;1.10;;
71288;SDS011;59068;52.502;9.860;2022-12-29T13:45:44;4.00;;;1.10;;
71288;SDS011;59068;52.502;9.860;2022-12-29T13:50:43;1.37;;;0.90;;
71288;SDS011;59068;52.502;9.860;2022-12-29T13:56:05;2.93;;;0.70;;
71288;SDS011;59068;52.502;9.860;2022-12-29T13:58:58;1.63;;;1.03;;
71288;SDS011;59068;52.502;9.860;2022-12-29T14:04:29;1.80;;;0.80;;
71288;SDS011;59068;52.502;9.860;2022-12-29T14:09:46;2.30;;;0.70;;
71288;SDS011;59068;52.502;9.860;2022-12-29T14:17:39;2.77;;;0.90;;
71288;SDS011;59068;52.502;9.860;2022-12-29T14:20:06;1.27;;;0.70;;
71288;SDS011;59068;52.502;9.860;2022-12-29T14:23:01;3.23;;;0.80;;
71288;SDS011;59068;52.502;9.860;2022-12-29T14:25:59;2.90;;;0.87;;
71288;SDS011;59068;52.502;9.860;2022-12-29T14:36:41;2.60;;;1.20;;
71288;SDS011;59068;52.502;9.860;2022-12-29T14:39:37;2.33;;;0.90;;
71288;SDS011;59068;52.502;9.860;2022-12-29T14:47:32;2.97;;;1.13;;
71288;SDS011;59068;52.502;9.860;2022-12-29T14:55:37;2.50;;;0.87;;
71288;SDS011;59068;52.502;9.860;2022-12-29T15:00:57;4.27;;;1.03;;
71288;SDS011;59068;52.502;9.860;2022-12-29T15:03:25;2.47;;;0.73;;
71288;SDS011;59068;52.502;9.860;2022-12-29T15:06:14;1.67;;;0.93;;
71288;SDS011;59068;52.502;9.860;2022-12-29T15:08:49;4.27;;;1.40;;
71288;SDS011;59068;52.502;9.860;2022-12-29T15:16:58;5.80;;;1.20;;
71288;SDS011;59068;52.502;9.860;2022-12-29T15:19:24;4.90;;;1.00;;
71288;SDS011;59068;52.502;9.860;2022-12-29T15:21:52;2.83;;;0.97;;
71288;SDS011;59068;52.502;9.860;2022-12-29T15:24:18;1.93;;;1.10;;
71288;SDS011;59068;52.502;9.860;2022-12-29T15:26:46;4.40;;;1.50;;
71288;SDS011;59068;52.502;9.860;2022-12-29T15:32:25;2.40;;;0.90;;
71288;SDS011;59068;52.502;9.860;2022-12-29T15:37:56;4.10;;;1.23;;
71288;SDS011;59068;52.502;9.860;2022-12-29T15:40:27;2.17;;;1.03;;
71288;SDS011;59068;52.502;9.860;2022-12-29T15:43:12;3.20;;;0.90;;
71288;SDS011;59068;52.502;9.860;2022-12-29T15:45:40;2.67;;;1.00;;
71288;SDS011;59068;52.502;9.860;2022-12-29T15:48:10;2.83;;;0.80;;
71288;SDS011;59068;52.502;9.860;2022-12-29T15:50:49;2.67;;;0.80;;
71288;SDS011;59068;52.502;9.860;2022-12-29T15:53:18;5.10;;;1.00;;
71288;SDS011;59068;52.502;9.860;2022-12-29T15:55:50;2.77;;;0.73;;
71288;SDS011;59068;52.502;9.860;2022-12-29T15:58:18;2.00;;;1.20;;
71288;SDS011;59068;52.502;9.860;2022-12-29T16:00:53;1.93;;;0.80;;
71288;SDS011;59068;52.502;9.860;2022-12-29T16:03:23;5.90;;;1.30;;
71288;SDS011;59068;52.502;9.860;2022-12-29T16:05:55;2.57;;;0.80;;
71288;SDS011;59068;52.502;9.860;2022-12-29T16:08:38;3.20;;;0.83;;
71288;SDS011;59068;52.502;9.860;2022-12-29T16:11:25;3.27;;;0.83;;
71288;SDS011;59068;52.502;9.860;2022-12-29T16:13:53;2.53;;;0.83;;
71288;SDS011;59068;52.502;9.860;2022-12-29T16:18:53;4.87;;;1.03;;
71288;SDS011;59068;52.502;9.860;2022-12-29T16:21:31;2.13;;;0.80;;
71288;SDS011;59068;52.502;9.860;2022-12-29T16:24:04;2.80;;;0.87;;
71288;SDS011;59068;52.502;9.860;2022-12-29T16:26:30;3.57;;;1.20;;
71288;SDS011;59068;52.502;9.860;2022-12-29T16:28:58;5.10;;;1.27;;
71288;SDS011;59068;52.502;9.860;2022-12-29T16:34:32;5.30;;;1.43;;
71288;SDS011;59068;52.502;9.860;2022-12-29T16:39:45;3.77;;;1.10;;
71288;SDS011;59068;52.502;9.860;2022-12-29T16:48:27;1.57;;;1.20;;
71288;SDS011;59068;52.502;9.860;2022-12-29T16:51:06;3.10;;;1.10;;
71288;SDS011;59068;52.502;9.860;2022-12-29T16:53:39;3.77;;;1.40;;
71288;SDS011;59068;52.502;9.860;2022-12-29T16:56:14;3.53;;;1.40;;
71288;SDS011;59068;52.502;9.860;2022-12-29T16:58:45;5.03;;;1.40;;
71288;SDS011;59068;52.502;9.860;2022-12-29T17:01:14;4.50;;;1.60;;
71288;SDS011;59068;52.502;9.860;2022-12-29T17:03:46;5.50;;;1.50;;
71288;SDS011;59068;52.502;9.860;2022-12-29T17:06:17;6.53;;;1.43;;
71288;SDS011;59068;52.502;9.860;2022-12-29T17:08:44;4.30;;;1.40;;
71288;SDS011;59068;52.502;9.860;2022-12-29T17:17:03;2.97;;;1.70;;
71288;SDS011;59068;52.502;9.860;2022-12-29T17:19:39;2.23;;;1.50;;
71288;SDS011;59068;52.502;9.860;2022-12-29T17:22:29;1.87;;;1.40;;
71288;SDS011;59068;52.502;9.860;2022-12-29T17:24:56;2.67;;;1.73;;
71288;SDS011;59068;52.502;9.860;2022-12-29T17:27:30;2.53;;;1.60;;
71288;SDS011;59068;52.502;9.860;2022-12-29T17:30:18;3.37;;;1.83;;
71288;SDS011;59068;52.502;9.860;2022-12-29T17:32:48;5.37;;;1.93;;
71288;SDS011;59068;52.502;9.860;2022-12-29T17:35:17;6.00;;;1.87;;
71288;SDS011;59068;52.502;9.860;2022-12-29T17:37:45;2.80;;;1.70;;
71288;SDS011;59068;52.502;9.860;2022-12-29T17:40:16;3.70;;;1.80;;
71288;SDS011;59068;52.502;9.860;2022-12-29T17:42:44;1.90;;;1.33;;
71288;SDS011;59068;52.502;9.860;2022-12-29T17:45:20;2.93;;;1.37;;
71288;SDS011;59068;52.502;9.860;2022-12-29T17:47:47;3.77;;;1.50;;
71288;SDS011;59068;52.502;9.860;2022-12-29T17:50:14;3.60;;;1.77;;
71288;SDS011;59068;52.502;9.860;2022-12-29T17:52:45;5.10;;;1.93;;
71288;SDS011;59068;52.502;9.860;2022-12-29T17:55:17;5.23;;;2.03;;
71288;SDS011;59068;52.502;9.860;2022-12-29T17:57:44;2.67;;;1.80;;
71288;SDS011;59068;52.502;9.860;2022-12-29T18:00:17;3.47;;;1.40;;
71288;SDS011;59068;52.502;9.860;2022-12-29T18:02:45;3.00;;;1.50;;
71288;SDS011;59068;52.502;9.860;2022-12-29T18:05:16;4.03;;;1.23;;
71288;SDS011;59068;52.502;9.860;2022-12-29T18:07:49;2.97;;;1.30;;
71288;SDS011;59068;52.502;9.860;2022-12-29T18:10:16;5.13;;;1.40;;
71288;SDS011;59068;52.502;9.860;2022-12-29T18:12:42;6.57;;;1.23;;
71288;SDS011;59068;52.502;9.860;2022-12-29T18:15:20;5.07;;;1.40;;
71288;SDS011;59068;52.502;9.860;2022-12-29T18:18:00;4.23;;;1.13;;
71288;SDS011;59068;52.502;9.860;2022-12-29T18:20:31;4.20;;;1.20;;
71288;SDS011;59068;52.502;9.860;2022-12-29T18:22:58;5.43;;;1.40;;
71288;SDS011;59068;52.502;9.860;2022-12-29T18:28:03;4.30;;;1.50;;
71288;SDS011;59068;52.502;9.860;2022-12-29T18:30:29;2.53;;;1.40;;
71288;SDS011;59068;52.502;9.860;2022-12-29T18:32:55;3.10;;;1.60;;